createdAt,value
2017-07-23T00:00:06.100Z,23.08
2017-07-23T00:01:06.094Z,23.02
2017-07-23T00:02:06.097Z,23.05
2017-07-23T00:03:06.123Z,23.1
2017-07-23T00:04:06.425Z,23.12
2017-07-23T00:05:06.423Z,23.13
2017-07-23T00:06:06.455Z,23.12
2017-07-23T00:07:06.438Z,23.13
2017-07-23T00:08:06.174Z,23.17
2017-07-23T00:09:06.442Z,23.1
2017-07-23T00:10:06.440Z,23.03
2017-07-23T00:11:06.443Z,23
2017-07-23T00:12:06.147Z,23.06
2017-07-23T00:13:06.445Z,23
2017-07-23T00:14:06.509Z,23
2017-07-23T00:15:06.468Z,23
2017-07-23T00:16:06.163Z,22.94
2017-07-23T00:17:06.465Z,22.94
2017-07-23T00:18:06.476Z,23.03
2017-07-23T00:19:06.473Z,23.05
2017-07-23T00:20:06.489Z,23.17
2017-07-23T00:21:06.482Z,23.1
2017-07-23T00:22:06.482Z,23.15
2017-07-23T00:23:06.494Z,23.12
2017-07-23T00:24:06.489Z,23.18
2017-07-23T00:25:06.489Z,23.2
2017-07-23T00:26:06.499Z,23.17
2017-07-23T00:27:06.199Z,23.15
2017-07-23T00:28:06.217Z,23.17
2017-07-23T00:29:08.412Z,23.09
2017-07-23T00:30:06.515Z,23.15
2017-07-23T00:31:06.517Z,23.18
2017-07-23T00:32:06.526Z,23.13
2017-07-23T00:33:06.532Z,23.17
2017-07-23T00:34:06.530Z,23.21
2017-07-23T00:35:06.545Z,23.13
2017-07-23T00:36:06.551Z,23.06
2017-07-23T00:37:06.546Z,23.1
2017-07-23T00:38:06.553Z,23.09
2017-07-23T00:39:06.551Z,23.02
2017-07-23T00:40:06.557Z,22.98
2017-07-23T00:41:06.558Z,22.98
2017-07-23T00:42:06.558Z,22.98
2017-07-23T00:43:06.568Z,22.94
2017-07-23T00:44:09.324Z,22.98
2017-07-23T00:45:06.582Z,22.94
2017-07-23T00:46:06.572Z,22.98
2017-07-23T00:47:06.579Z,22.88
2017-07-23T00:48:06.587Z,22.87
2017-07-23T00:49:06.597Z,22.91
2017-07-23T00:50:06.692Z,22.81
2017-07-23T00:51:06.292Z,22.84
2017-07-23T00:52:06.605Z,22.84
2017-07-23T00:53:06.299Z,22.9
2017-07-23T00:54:06.608Z,22.84
2017-07-23T00:55:06.621Z,22.88
2017-07-23T00:56:06.619Z,22.84
2017-07-23T00:57:06.622Z,22.87
2017-07-23T00:58:06.325Z,22.87
2017-07-23T00:59:06.627Z,22.87
2017-07-23T01:00:08.808Z,22.81
2017-07-23T01:01:06.640Z,22.8
2017-07-23T01:02:06.660Z,22.75
2017-07-23T01:03:06.642Z,22.73
2017-07-23T01:04:06.363Z,22.68
2017-07-23T01:05:06.674Z,22.63
2017-07-23T01:06:06.667Z,22.6
2017-07-23T01:07:06.674Z,22.55
2017-07-23T01:08:06.663Z,22.6
2017-07-23T01:09:06.668Z,22.47
2017-07-23T01:10:06.665Z,22.47
2017-07-23T01:11:06.665Z,22.45
2017-07-23T01:12:06.673Z,22.35
2017-07-23T01:13:06.673Z,22.36
2017-07-23T01:14:06.699Z,22.36
2017-07-23T01:15:08.177Z,22.28
2017-07-23T01:16:06.741Z,22.22
2017-07-23T01:17:06.696Z,22.29
2017-07-23T01:18:06.697Z,22.18
2017-07-23T01:19:06.398Z,22.25
2017-07-23T01:20:06.703Z,22.22
2017-07-23T01:21:06.702Z,22.2
2017-07-23T01:22:06.423Z,22.22
2017-07-23T01:23:06.714Z,22.13
2017-07-23T01:24:06.717Z,22.02
2017-07-23T01:25:06.729Z,21.95
2017-07-23T01:26:06.429Z,22
2017-07-23T01:27:06.760Z,21.99
2017-07-23T01:28:06.743Z,22
2017-07-23T01:29:06.739Z,22.02
2017-07-23T01:30:07.189Z,21.98
2017-07-23T01:31:06.740Z,21.93
2017-07-23T01:32:06.748Z,21.99
2017-07-23T01:33:06.749Z,21.91
2017-07-23T01:34:06.752Z,21.92
2017-07-23T01:35:06.478Z,21.92
2017-07-23T01:36:06.761Z,21.91
2017-07-23T01:37:06.774Z,21.99
2017-07-23T01:38:06.762Z,22
2017-07-23T01:39:06.767Z,21.91
2017-07-23T01:40:06.777Z,21.96
2017-07-23T01:41:06.487Z,21.95
2017-07-23T01:42:06.784Z,21.99
2017-07-23T01:43:06.780Z,21.85
2017-07-23T01:44:06.788Z,22.04
2017-07-23T01:45:10.828Z,22.02
2017-07-23T01:46:06.493Z,22
2017-07-23T01:47:06.799Z,21.93
2017-07-23T01:48:06.808Z,21.83
2017-07-23T01:49:06.824Z,21.83
2017-07-23T01:50:06.808Z,21.93
2017-07-23T01:51:06.512Z,21.93
2017-07-23T01:52:06.820Z,21.99
2017-07-23T01:53:06.851Z,21.89
2017-07-23T01:54:06.831Z,21.88
2017-07-23T01:55:06.911Z,21.89
2017-07-23T01:56:06.533Z,21.92
2017-07-23T01:57:06.868Z,21.92
2017-07-23T01:58:06.829Z,21.85
2017-07-23T01:59:06.533Z,21.88
2017-07-23T02:00:06.850Z,21.96
2017-07-23T02:01:07.588Z,21.95
2017-07-23T02:02:06.847Z,21.89
2017-07-23T02:03:06.846Z,21.8
2017-07-23T02:04:06.855Z,21.8
2017-07-23T02:05:06.872Z,21.76
2017-07-23T02:06:06.564Z,21.79
2017-07-23T02:07:06.880Z,21.83
2017-07-23T02:08:06.880Z,21.95
2017-07-23T02:09:06.580Z,21.92
2017-07-23T02:10:06.578Z,21.91
2017-07-23T02:11:06.875Z,21.88
2017-07-23T02:12:06.901Z,21.93
2017-07-23T02:13:06.880Z,21.96
2017-07-23T02:14:06.893Z,21.92
2017-07-23T02:15:06.896Z,21.89
2017-07-23T02:16:06.951Z,21.91
2017-07-23T02:17:06.901Z,21.89
2017-07-23T02:18:06.899Z,21.83
2017-07-23T02:19:06.604Z,21.89
2017-07-23T02:20:06.956Z,21.8
2017-07-23T02:21:06.934Z,21.69
2017-07-23T02:22:06.925Z,21.72
2017-07-23T02:23:06.628Z,21.67
2017-07-23T02:24:06.928Z,21.62
2017-07-23T02:25:06.644Z,21.54
2017-07-23T02:26:06.628Z,21.58
2017-07-23T02:27:06.939Z,21.6
2017-07-23T02:28:06.937Z,21.48
2017-07-23T02:29:06.938Z,21.48
2017-07-23T02:30:06.942Z,21.45
2017-07-23T02:31:09.869Z,21.46
2017-07-23T02:32:06.965Z,21.48
2017-07-23T02:33:06.964Z,21.4
2017-07-23T02:34:06.959Z,21.45
2017-07-23T02:35:07.019Z,21.37
2017-07-23T02:36:07.054Z,21.43
2017-07-23T02:37:06.976Z,21.27
2017-07-23T02:38:06.974Z,21.39
2017-07-23T02:39:06.669Z,21.35
2017-07-23T02:40:06.983Z,21.32
2017-07-23T02:41:07.004Z,21.3
2017-07-23T02:42:06.982Z,21.12
2017-07-23T02:43:06.990Z,21.14
2017-07-23T02:44:06.682Z,21.02
2017-07-23T02:45:06.988Z,21.02
2017-07-23T02:46:06.691Z,21.05
2017-07-23T02:47:07.008Z,21.03
2017-07-23T02:48:07.008Z,21
2017-07-23T02:49:07.028Z,20.95
2017-07-23T02:50:07.004Z,20.87
2017-07-23T02:51:07.023Z,20.87
2017-07-23T02:52:07.006Z,20.74
2017-07-23T02:53:07.021Z,20.77
2017-07-23T02:54:07.022Z,20.77
2017-07-23T02:55:07.025Z,20.7
2017-07-23T02:56:07.020Z,20.69
2017-07-23T02:57:07.026Z,20.72
2017-07-23T02:58:07.030Z,20.7
2017-07-23T02:59:07.031Z,20.7
2017-07-23T03:00:07.039Z,20.77
2017-07-23T03:01:07.041Z,20.78
2017-07-23T03:02:06.744Z,20.7
2017-07-23T03:03:07.051Z,20.72
2017-07-23T03:04:07.046Z,20.8
2017-07-23T03:05:06.743Z,20.7
2017-07-23T03:06:07.066Z,20.85
2017-07-23T03:07:07.053Z,20.77
2017-07-23T03:08:07.075Z,20.85
2017-07-23T03:09:07.070Z,20.82
2017-07-23T03:10:06.820Z,20.77
2017-07-23T03:11:07.067Z,20.74
2017-07-23T03:12:06.776Z,20.75
2017-07-23T03:13:07.091Z,20.69
2017-07-23T03:14:06.777Z,20.85
2017-07-23T03:15:07.093Z,20.82
2017-07-23T03:16:07.092Z,20.88
2017-07-23T03:17:06.836Z,20.84
2017-07-23T03:18:07.098Z,20.9
2017-07-23T03:19:07.093Z,20.85
2017-07-23T03:20:07.093Z,20.85
2017-07-23T03:21:07.097Z,20.82
2017-07-23T03:22:06.797Z,20.85
2017-07-23T03:23:07.102Z,20.72
2017-07-23T03:24:06.817Z,20.77
2017-07-23T03:25:07.119Z,20.66
2017-07-23T03:26:07.122Z,20.52
2017-07-23T03:27:07.116Z,20.52
2017-07-23T03:28:07.134Z,20.47
2017-07-23T03:29:07.123Z,20.44
2017-07-23T03:30:07.133Z,20.37
2017-07-23T03:31:07.146Z,20.4
2017-07-23T03:32:09.156Z,20.4
2017-07-23T03:33:07.134Z,20.32
2017-07-23T03:34:06.854Z,20.4
2017-07-23T03:35:07.143Z,20.28
2017-07-23T03:36:07.147Z,20.28
2017-07-23T03:37:07.150Z,20.22
2017-07-23T03:38:07.147Z,20.14
2017-07-23T03:39:07.155Z,20.1
2017-07-23T03:40:07.160Z,20.03
2017-07-23T03:41:06.864Z,19.95
2017-07-23T03:42:06.856Z,19.88
2017-07-23T03:43:06.857Z,19.84
2017-07-23T03:44:07.193Z,19.81
2017-07-23T03:45:07.236Z,19.86
2017-07-23T03:46:07.173Z,19.85
2017-07-23T03:47:07.169Z,19.86
2017-07-23T03:48:07.175Z,19.85
2017-07-23T03:49:06.878Z,19.77
2017-07-23T03:50:06.885Z,19.84
2017-07-23T03:51:07.181Z,19.82
2017-07-23T03:52:07.203Z,19.82
2017-07-23T03:53:07.187Z,19.76
2017-07-23T03:54:07.198Z,19.77
2017-07-23T03:55:06.895Z,19.73
2017-07-23T03:56:07.195Z,19.7
2017-07-23T03:57:07.217Z,19.73
2017-07-23T03:58:06.904Z,19.67
2017-07-23T03:59:07.219Z,19.73
2017-07-23T04:00:07.207Z,19.7
2017-07-23T04:01:06.929Z,19.74
2017-07-23T04:02:11.329Z,19.82
2017-07-23T04:03:07.221Z,19.76
2017-07-23T04:04:06.926Z,19.84
2017-07-23T04:05:07.218Z,19.84
2017-07-23T04:06:07.224Z,19.86
2017-07-23T04:07:07.259Z,19.86
2017-07-23T04:08:07.243Z,19.96
2017-07-23T04:09:07.230Z,19.99
2017-07-23T04:10:07.247Z,19.95
2017-07-23T04:11:07.236Z,19.96
2017-07-23T04:12:06.941Z,20.02
2017-07-23T04:13:07.245Z,20.02
2017-07-23T04:14:06.948Z,20.02
2017-07-23T04:15:06.956Z,20.04
2017-07-23T04:16:07.252Z,20.06
2017-07-23T04:17:07.253Z,20.02
2017-07-23T04:18:08.209Z,20.02
2017-07-23T04:19:07.278Z,20.02
2017-07-23T04:20:06.960Z,20.02
2017-07-23T04:21:07.282Z,20.02
2017-07-23T04:22:07.279Z,20.09
2017-07-23T04:23:07.281Z,20.03
2017-07-23T04:24:07.275Z,20.04
2017-07-23T04:25:07.284Z,19.99
2017-07-23T04:26:07.281Z,19.96
2017-07-23T04:27:07.289Z,19.95
2017-07-23T04:28:07.297Z,19.95
2017-07-23T04:29:07.290Z,19.99
2017-07-23T04:30:06.993Z,19.92
2017-07-23T04:31:07.320Z,20.03
2017-07-23T04:32:06.993Z,20.06
2017-07-23T04:33:07.706Z,20.06
2017-07-23T04:34:06.712Z,20.04
2017-07-23T04:35:07.319Z,20.06
2017-07-23T04:36:07.317Z,20.02
2017-07-23T04:37:07.316Z,20.02
2017-07-23T04:38:07.318Z,19.89
2017-07-23T04:39:07.321Z,19.82
2017-07-23T04:40:07.319Z,19.79
2017-07-23T04:41:07.320Z,19.79
2017-07-23T04:42:06.720Z,19.84
2017-07-23T04:43:07.026Z,19.81
2017-07-23T04:44:07.330Z,19.82
2017-07-23T04:45:07.044Z,19.85
2017-07-23T04:46:07.348Z,19.84
2017-07-23T04:47:07.035Z,19.86
2017-07-23T04:48:07.394Z,19.82
2017-07-23T04:49:07.348Z,19.86
2017-07-23T04:50:07.347Z,19.86
2017-07-23T04:51:07.053Z,19.84
2017-07-23T04:52:07.350Z,19.86
2017-07-23T04:53:07.361Z,19.96
2017-07-23T04:54:07.365Z,19.94
2017-07-23T04:55:07.361Z,20.02
2017-07-23T04:56:07.372Z,20.03
2017-07-23T04:57:07.367Z,20
2017-07-23T04:58:07.077Z,20.02
2017-07-23T04:59:07.385Z,20.07
2017-07-23T05:00:07.378Z,19.99
2017-07-23T05:01:07.381Z,19.95
2017-07-23T05:02:07.385Z,19.94
2017-07-23T05:03:10.636Z,19.94
2017-07-23T05:04:07.385Z,19.95
2017-07-23T05:05:07.402Z,19.99
2017-07-23T05:06:07.397Z,19.92
2017-07-23T05:07:07.395Z,19.95
2017-07-23T05:08:07.398Z,20.02
2017-07-23T05:09:07.401Z,20
2017-07-23T05:10:07.406Z,20
2017-07-23T05:11:07.406Z,20.07
2017-07-23T05:12:07.412Z,20.02
2017-07-23T05:13:07.412Z,20.04
2017-07-23T05:14:07.424Z,20.13
2017-07-23T05:15:07.416Z,20.14
2017-07-23T05:16:07.127Z,20.16
2017-07-23T05:17:07.434Z,20.19
2017-07-23T05:18:07.426Z,20.24
2017-07-23T05:19:07.446Z,20.19
2017-07-23T05:20:07.446Z,20.13
2017-07-23T05:21:07.450Z,20.25
2017-07-23T05:22:07.146Z,20.24
2017-07-23T05:23:07.452Z,20.31
2017-07-23T05:24:07.162Z,20.44
2017-07-23T05:25:07.470Z,20.39
2017-07-23T05:26:07.463Z,20.47
2017-07-23T05:27:07.463Z,20.48
2017-07-23T05:28:07.460Z,20.55
2017-07-23T05:29:07.472Z,20.55
2017-07-23T05:30:07.490Z,20.51
2017-07-23T05:31:07.175Z,20.6
2017-07-23T05:32:07.481Z,20.67
2017-07-23T05:33:07.483Z,20.72
2017-07-23T05:34:08.986Z,20.66
2017-07-23T05:35:07.499Z,20.72
2017-07-23T05:36:07.504Z,20.67
2017-07-23T05:37:07.510Z,20.69
2017-07-23T05:38:07.499Z,20.7
2017-07-23T05:39:07.498Z,20.62
2017-07-23T05:40:07.498Z,20.58
2017-07-23T05:41:07.514Z,20.72
2017-07-23T05:42:07.518Z,20.65
2017-07-23T05:43:07.529Z,20.65
2017-07-23T05:44:07.535Z,20.51
2017-07-23T05:45:07.537Z,20.52
2017-07-23T05:46:07.535Z,20.56
2017-07-23T05:47:07.532Z,20.6
2017-07-23T05:48:07.249Z,20.66
2017-07-23T05:49:07.602Z,20.67
2017-07-23T05:50:07.248Z,20.69
2017-07-23T05:51:07.543Z,20.78
2017-07-23T05:52:07.569Z,20.85
2017-07-23T05:53:07.552Z,20.85
2017-07-23T05:54:07.557Z,20.96
2017-07-23T05:55:07.635Z,20.95
2017-07-23T05:56:07.565Z,21.03
2017-07-23T05:57:07.577Z,21.07
2017-07-23T05:58:07.589Z,21.12
2017-07-23T05:59:07.590Z,21.21
2017-07-23T06:00:07.569Z,21.24
2017-07-23T06:01:07.594Z,21.17
2017-07-23T06:02:07.586Z,21.24
2017-07-23T06:03:07.587Z,21.22
2017-07-23T06:04:09.151Z,21.25
2017-07-23T06:05:07.610Z,21.29
2017-07-23T06:06:07.317Z,21.43
2017-07-23T06:07:07.626Z,21.39
2017-07-23T06:08:07.614Z,21.51
2017-07-23T06:09:07.617Z,21.54
2017-07-23T06:10:07.698Z,21.57
2017-07-23T06:11:07.631Z,21.48
2017-07-23T06:12:07.625Z,21.57
2017-07-23T06:13:07.641Z,21.58
2017-07-23T06:14:07.338Z,21.6
2017-07-23T06:15:07.635Z,21.54
2017-07-23T06:16:07.653Z,21.5
2017-07-23T06:17:07.647Z,21.58
2017-07-23T06:18:07.645Z,21.66
2017-07-23T06:19:07.372Z,21.72
2017-07-23T06:20:07.348Z,21.79
2017-07-23T06:21:07.660Z,21.8
2017-07-23T06:22:07.356Z,21.88
2017-07-23T06:23:07.653Z,21.91
2017-07-23T06:24:07.666Z,21.92
2017-07-23T06:25:07.751Z,21.85
2017-07-23T06:26:07.692Z,21.88
2017-07-23T06:27:07.681Z,21.83
2017-07-23T06:28:07.677Z,21.88
2017-07-23T06:29:07.393Z,21.85
2017-07-23T06:30:07.399Z,21.92
2017-07-23T06:31:07.396Z,21.83
2017-07-23T06:32:07.400Z,21.91
2017-07-23T06:33:07.710Z,21.93
2017-07-23T06:34:07.409Z,21.93
2017-07-23T06:35:07.718Z,22.1
2017-07-23T06:36:07.715Z,22.5
2017-07-23T06:37:07.726Z,23.03
2017-07-23T06:38:07.426Z,23.39
2017-07-23T06:39:07.735Z,23.91
2017-07-23T06:40:07.798Z,24.45
2017-07-23T06:41:07.737Z,24.89
2017-07-23T06:42:07.752Z,25.04
2017-07-23T06:43:07.756Z,24.98
2017-07-23T06:44:07.756Z,24.96
2017-07-23T06:45:07.504Z,24.86
2017-07-23T06:46:07.795Z,24.58
2017-07-23T06:47:07.778Z,24.36
2017-07-23T06:48:07.794Z,24.21
2017-07-23T06:49:07.783Z,23.96
2017-07-23T06:50:07.475Z,23.78
2017-07-23T06:51:07.495Z,23.63
2017-07-23T06:52:07.794Z,23.32
2017-07-23T06:53:07.789Z,23.08
2017-07-23T06:54:07.503Z,22.83
2017-07-23T06:55:07.813Z,22.59
2017-07-23T06:56:07.515Z,22.3
2017-07-23T06:57:07.828Z,22.25
2017-07-23T06:58:07.825Z,22.13
2017-07-23T06:59:07.827Z,21.93
2017-07-23T07:00:07.836Z,21.98
2017-07-23T07:01:07.839Z,21.99
2017-07-23T07:02:07.535Z,21.77
2017-07-23T07:03:07.856Z,21.69
2017-07-23T07:04:07.562Z,21.62
2017-07-23T07:05:09.170Z,21.66
2017-07-23T07:06:07.859Z,21.76
2017-07-23T07:07:07.864Z,21.89
2017-07-23T07:08:07.861Z,21.91
2017-07-23T07:09:07.579Z,21.98
2017-07-23T07:10:07.613Z,22.02
2017-07-23T07:11:07.877Z,22.15
2017-07-23T07:12:07.889Z,22.11
2017-07-23T07:13:07.893Z,22.29
2017-07-23T07:14:07.585Z,22.29
2017-07-23T07:15:07.977Z,22.3
2017-07-23T07:16:07.894Z,22.48
2017-07-23T07:17:07.897Z,22.44
2017-07-23T07:18:07.898Z,22.45
2017-07-23T07:19:07.605Z,22.43
2017-07-23T07:20:08.261Z,22.3
2017-07-23T07:21:07.917Z,22.23
2017-07-23T07:22:08.403Z,22.18
2017-07-23T07:23:07.921Z,22.07
2017-07-23T07:24:07.646Z,21.91
2017-07-23T07:25:07.386Z,21.92
2017-07-23T07:26:07.945Z,21.88
2017-07-23T07:27:07.946Z,21.8
2017-07-23T07:28:07.650Z,21.83
2017-07-23T07:29:07.956Z,21.88
2017-07-23T07:30:08.065Z,21.79
2017-07-23T07:31:07.956Z,21.82
2017-07-23T07:32:07.957Z,21.89
2017-07-23T07:33:07.963Z,21.83
2017-07-23T07:34:07.672Z,21.88
2017-07-23T07:35:07.963Z,21.88
2017-07-23T07:36:07.972Z,21.95
2017-07-23T07:37:07.975Z,21.79
2017-07-23T07:38:07.990Z,21.77
2017-07-23T07:39:07.988Z,21.76
2017-07-23T07:40:08.061Z,21.8
2017-07-23T07:41:07.992Z,21.79
2017-07-23T07:42:07.999Z,21.73
2017-07-23T07:43:08.028Z,21.73
2017-07-23T07:44:07.725Z,21.66
2017-07-23T07:45:08.098Z,21.69
2017-07-23T07:46:08.016Z,21.75
2017-07-23T07:47:07.719Z,21.89
2017-07-23T07:48:08.022Z,21.88
2017-07-23T07:49:07.729Z,21.99
2017-07-23T07:50:10.334Z,22.07
2017-07-23T07:51:08.043Z,22.13
2017-07-23T07:52:08.042Z,22.13
2017-07-23T07:53:08.044Z,22.13
2017-07-23T07:54:08.045Z,22.18
2017-07-23T07:55:07.763Z,22.17
2017-07-23T07:56:08.054Z,22.17
2017-07-23T07:57:08.060Z,22.17
2017-07-23T07:58:07.764Z,22.2
2017-07-23T07:59:08.072Z,22.23
2017-07-23T08:00:08.314Z,22.25
2017-07-23T08:01:08.074Z,22.36
2017-07-23T08:02:07.791Z,22.29
2017-07-23T08:03:07.788Z,22.41
2017-07-23T08:04:08.084Z,22.54
2017-07-23T08:05:09.749Z,22.7
2017-07-23T08:06:07.798Z,22.78
2017-07-23T08:07:07.807Z,22.85
2017-07-23T08:08:08.110Z,22.87
2017-07-23T08:09:08.135Z,23.03
2017-07-23T08:10:08.222Z,23.02
2017-07-23T08:11:08.123Z,23.15
2017-07-23T08:12:07.827Z,23.39
2017-07-23T08:13:08.125Z,23.76
2017-07-23T08:14:08.136Z,23.99
2017-07-23T08:15:08.339Z,24.17
2017-07-23T08:16:08.155Z,24.35
2017-07-23T08:17:07.852Z,24.18
2017-07-23T08:18:08.149Z,24.18
2017-07-23T08:19:07.856Z,24.17
2017-07-23T08:20:08.466Z,24.13
2017-07-23T08:21:08.163Z,24.3
2017-07-23T08:22:08.174Z,24.32
2017-07-23T08:23:08.177Z,24.33
2017-07-23T08:24:08.192Z,24.28
2017-07-23T08:25:08.335Z,24.18
2017-07-23T08:26:08.700Z,24.2
2017-07-23T08:27:08.203Z,24.32
2017-07-23T08:28:08.219Z,24.35
2017-07-23T08:29:08.220Z,24.6
2017-07-23T08:30:08.486Z,24.85
2017-07-23T08:31:08.231Z,25.17
2017-07-23T08:32:07.928Z,25.55
2017-07-23T08:33:07.932Z,25.93
2017-07-23T08:34:08.240Z,26.48
2017-07-23T08:35:08.193Z,26.99
2017-07-23T08:36:08.102Z,27.35
2017-07-23T08:37:08.257Z,27.6
2017-07-23T08:38:08.262Z,27.9
2017-07-23T08:39:08.269Z,27.82
2017-07-23T08:40:08.385Z,27.7
2017-07-23T08:41:07.993Z,27.73
2017-07-23T08:42:08.296Z,27.64
2017-07-23T08:43:08.299Z,27.64
2017-07-23T08:44:08.308Z,28.05
2017-07-23T08:45:08.514Z,28.54
2017-07-23T08:46:08.020Z,29.07
2017-07-23T08:47:08.024Z,29.27
2017-07-23T08:48:08.336Z,29.42
2017-07-23T08:49:07.734Z,29.36
2017-07-23T08:50:08.324Z,29.01
2017-07-23T08:51:09.210Z,28.75
2017-07-23T08:52:08.377Z,28.98
2017-07-23T08:53:07.771Z,28.82
2017-07-23T08:54:08.384Z,28.72
2017-07-23T08:55:08.670Z,28.75
2017-07-23T08:56:08.397Z,28.48
2017-07-23T08:57:08.096Z,28.11
2017-07-23T08:58:08.407Z,27.64
2017-07-23T08:59:08.415Z,27.07
2017-07-23T09:00:08.704Z,26.68
2017-07-23T09:01:08.443Z,26.22
2017-07-23T09:02:08.137Z,25.73
2017-07-23T09:03:08.445Z,25.23
2017-07-23T09:04:08.459Z,24.88
2017-07-23T09:05:08.790Z,24.78
2017-07-23T09:06:08.624Z,24.65
2017-07-23T09:07:08.471Z,24.65
2017-07-23T09:08:08.178Z,24.38
2017-07-23T09:09:08.488Z,24.43
2017-07-23T09:10:08.303Z,24.45
2017-07-23T09:11:08.191Z,24.5
2017-07-23T09:12:08.208Z,24.3
2017-07-23T09:13:08.513Z,24.03
2017-07-23T09:14:08.517Z,23.91
2017-07-23T09:15:08.481Z,23.65
2017-07-23T09:16:08.228Z,23.62
2017-07-23T09:17:08.545Z,23.47
2017-07-23T09:18:08.543Z,23.5
2017-07-23T09:19:08.238Z,23.41
2017-07-23T09:20:08.460Z,23.43
2017-07-23T09:21:08.251Z,23.43
2017-07-23T09:22:09.858Z,23.39
2017-07-23T09:23:08.565Z,23.46
2017-07-23T09:24:08.565Z,23.4
2017-07-23T09:25:08.797Z,23.39
2017-07-23T09:26:08.581Z,23.39
2017-07-23T09:27:08.291Z,23.43
2017-07-23T09:28:08.301Z,23.44
2017-07-23T09:29:08.603Z,23.44
2017-07-23T09:30:08.843Z,23.5
2017-07-23T09:31:08.609Z,23.58
2017-07-23T09:32:08.316Z,23.55
2017-07-23T09:33:08.624Z,23.54
2017-07-23T09:34:08.617Z,23.71
2017-07-23T09:35:08.887Z,23.69
2017-07-23T09:36:08.633Z,23.84
2017-07-23T09:37:12.842Z,23.95
2017-07-23T09:38:08.345Z,23.96
2017-07-23T09:39:08.343Z,24.03
2017-07-23T09:40:08.949Z,24.08
2017-07-23T09:41:08.656Z,24.2
2017-07-23T09:42:08.361Z,24.33
2017-07-23T09:43:08.670Z,24.33
2017-07-23T09:44:08.372Z,24.36
2017-07-23T09:45:08.165Z,24.45
2017-07-23T09:46:08.690Z,24.48
2017-07-23T09:47:08.386Z,24.51
2017-07-23T09:48:08.695Z,24.58
2017-07-23T09:49:08.698Z,24.84
2017-07-23T09:50:09.127Z,25.03
2017-07-23T09:51:08.404Z,24.92
2017-07-23T09:52:08.731Z,24.8
2017-07-23T09:53:08.718Z,24.81
2017-07-23T09:54:08.426Z,24.92
2017-07-23T09:55:09.071Z,25.03
2017-07-23T09:56:08.433Z,25.04
2017-07-23T09:57:08.143Z,25.06
2017-07-23T09:58:08.751Z,25.01
2017-07-23T09:59:08.452Z,24.96
2017-07-23T10:00:09.148Z,24.95
2017-07-23T10:01:08.483Z,24.93
2017-07-23T10:02:08.778Z,24.88
2017-07-23T10:03:08.782Z,24.81
2017-07-23T10:04:08.781Z,24.78
2017-07-23T10:05:09.037Z,24.78
2017-07-23T10:06:08.791Z,24.91
2017-07-23T10:07:08.503Z,24.99
2017-07-23T10:08:08.799Z,25.22
2017-07-23T10:09:08.535Z,25.21
2017-07-23T10:10:08.883Z,25.22
2017-07-23T10:11:08.521Z,25.13
2017-07-23T10:12:08.221Z,25.03
2017-07-23T10:13:08.853Z,24.86
2017-07-23T10:14:08.841Z,24.88
2017-07-23T10:15:09.166Z,24.78
2017-07-23T10:16:08.849Z,24.84
2017-07-23T10:17:08.554Z,24.81
2017-07-23T10:18:08.856Z,24.95
2017-07-23T10:19:08.567Z,25.08
2017-07-23T10:20:08.891Z,25.07
2017-07-23T10:21:08.873Z,25.04
2017-07-23T10:22:08.577Z,25.11
2017-07-23T10:23:09.698Z,25.01
2017-07-23T10:24:08.583Z,24.98
2017-07-23T10:25:09.303Z,25.01
2017-07-23T10:26:08.605Z,25.06
2017-07-23T10:27:08.954Z,24.88
2017-07-23T10:28:08.612Z,24.86
2017-07-23T10:29:08.638Z,24.81
2017-07-23T10:30:09.338Z,24.81
2017-07-23T10:31:08.928Z,24.98
2017-07-23T10:32:08.948Z,25.16
2017-07-23T10:33:08.949Z,25.26
2017-07-23T10:34:08.960Z,25.31
2017-07-23T10:35:08.950Z,25.29
2017-07-23T10:36:08.968Z,25.22
2017-07-23T10:37:08.657Z,25.23
2017-07-23T10:38:09.125Z,25.23
2017-07-23T10:39:08.974Z,25.38
2017-07-23T10:40:09.344Z,25.51
2017-07-23T10:41:08.981Z,25.36
2017-07-23T10:42:08.700Z,25.48
2017-07-23T10:43:09.003Z,25.51
2017-07-23T10:44:08.710Z,25.62
2017-07-23T10:45:09.426Z,25.59
2017-07-23T10:46:09.012Z,25.6
2017-07-23T10:47:08.723Z,25.63
2017-07-23T10:48:09.020Z,25.65
2017-07-23T10:49:09.021Z,25.66
2017-07-23T10:50:09.404Z,25.72
2017-07-23T10:51:09.035Z,25.66
2017-07-23T10:52:09.042Z,25.69
2017-07-23T10:53:12.197Z,25.63
2017-07-23T10:54:09.055Z,25.54
2017-07-23T10:55:09.066Z,25.5
2017-07-23T10:56:09.068Z,25.36
2017-07-23T10:57:09.067Z,25.35
2017-07-23T10:58:08.771Z,25.22
2017-07-23T10:59:08.783Z,25.14
2017-07-23T11:00:09.457Z,25.23
2017-07-23T11:01:08.797Z,25.16
2017-07-23T11:02:08.812Z,25.13
2017-07-23T11:03:09.104Z,25.13
2017-07-23T11:04:09.105Z,24.92
2017-07-23T11:05:09.690Z,24.89
2017-07-23T11:06:09.122Z,24.76
2017-07-23T11:07:09.134Z,24.78
2017-07-23T11:08:08.827Z,24.78
2017-07-23T11:09:09.148Z,24.69
2017-07-23T11:10:09.574Z,24.53
2017-07-23T11:11:08.846Z,24.53
2017-07-23T11:12:09.148Z,24.53
2017-07-23T11:13:09.164Z,24.61
2017-07-23T11:14:09.164Z,24.66
2017-07-23T11:15:09.655Z,24.8
2017-07-23T11:16:09.180Z,24.81
2017-07-23T11:17:08.879Z,24.8
2017-07-23T11:18:08.882Z,24.84
2017-07-23T11:19:09.188Z,24.85
2017-07-23T11:20:09.299Z,24.91
2017-07-23T11:21:08.896Z,24.86
2017-07-23T11:22:09.215Z,24.84
2017-07-23T11:23:09.221Z,24.73
2017-07-23T11:24:09.260Z,24.7
2017-07-23T11:25:09.707Z,24.68
2017-07-23T11:26:09.236Z,24.58
2017-07-23T11:27:09.239Z,24.63
2017-07-23T11:28:09.233Z,24.7
2017-07-23T11:29:08.956Z,24.81
2017-07-23T11:30:09.671Z,24.68
2017-07-23T11:31:08.944Z,24.66
2017-07-23T11:32:09.248Z,24.69
2017-07-23T11:33:08.956Z,24.65
2017-07-23T11:34:09.268Z,24.73
2017-07-23T11:35:09.695Z,24.69
2017-07-23T11:36:08.969Z,24.65
2017-07-23T11:37:09.282Z,24.85
2017-07-23T11:38:09.279Z,24.84
2017-07-23T11:39:10.091Z,24.93
2017-07-23T11:40:09.401Z,24.93
2017-07-23T11:41:09.300Z,24.78
2017-07-23T11:42:09.300Z,24.68
2017-07-23T11:43:09.304Z,24.65
2017-07-23T11:44:09.314Z,24.86
2017-07-23T11:45:09.719Z,24.84
2017-07-23T11:46:09.325Z,24.85
2017-07-23T11:47:09.027Z,24.95
2017-07-23T11:48:09.030Z,24.98
2017-07-23T11:49:09.342Z,25.1
2017-07-23T11:50:09.450Z,25.1
2017-07-23T11:51:09.348Z,25.14
2017-07-23T11:52:09.365Z,25.1
2017-07-23T11:53:09.363Z,25.14
2017-07-23T11:54:10.218Z,25.08
2017-07-23T11:55:09.769Z,24.95
2017-07-23T11:56:09.073Z,24.91
2017-07-23T11:57:09.387Z,24.88
2017-07-23T11:58:09.080Z,24.8
2017-07-23T11:59:09.088Z,24.77
2017-07-23T12:00:09.841Z,24.63
2017-07-23T12:01:09.408Z,24.54
2017-07-23T12:02:09.415Z,24.38
2017-07-23T12:03:09.414Z,24.54
2017-07-23T12:04:09.421Z,24.73
2017-07-23T12:05:09.877Z,24.95
2017-07-23T12:06:09.125Z,25.07
2017-07-23T12:07:09.166Z,25.01
2017-07-23T12:08:09.445Z,25.1
2017-07-23T12:09:09.551Z,25.14
2017-07-23T12:10:09.977Z,25.13
2017-07-23T12:11:09.474Z,25.17
2017-07-23T12:12:09.490Z,25.18
2017-07-23T12:13:09.474Z,25.13
2017-07-23T12:14:09.471Z,25.21
2017-07-23T12:15:09.643Z,25.36
2017-07-23T12:16:09.489Z,25.44
2017-07-23T12:17:09.497Z,25.53
2017-07-23T12:18:09.495Z,25.68
2017-07-23T12:19:09.207Z,25.54
2017-07-23T12:20:09.587Z,25.33
2017-07-23T12:21:09.199Z,25.44
2017-07-23T12:22:09.506Z,25.66
2017-07-23T12:23:09.565Z,25.78
2017-07-23T12:24:08.984Z,25.84
2017-07-23T12:25:10.064Z,25.96
2017-07-23T12:26:09.536Z,25.95
2017-07-23T12:27:09.241Z,25.93
2017-07-23T12:28:08.942Z,26.05
2017-07-23T12:29:09.249Z,26.15
2017-07-23T12:30:09.749Z,26.16
2017-07-23T12:31:08.960Z,26.25
2017-07-23T12:32:09.276Z,26.31
2017-07-23T12:33:09.274Z,26.21
2017-07-23T12:34:09.587Z,26.09
2017-07-23T12:35:10.038Z,25.68
2017-07-23T12:36:09.594Z,25.68
2017-07-23T12:37:09.298Z,25.7
2017-07-23T12:38:09.595Z,25.7
2017-07-23T12:39:09.852Z,25.69
2017-07-23T12:40:10.078Z,25.81
2017-07-23T12:41:09.613Z,25.9
2017-07-23T12:42:09.323Z,25.93
2017-07-23T12:43:09.623Z,26.09
2017-07-23T12:44:09.326Z,26.1
2017-07-23T12:45:10.129Z,26.15
2017-07-23T12:46:09.641Z,26.06
2017-07-23T12:47:09.672Z,25.91
2017-07-23T12:48:09.648Z,25.98
2017-07-23T12:49:09.665Z,25.96
2017-07-23T12:50:10.173Z,26.09
2017-07-23T12:51:09.666Z,26.21
2017-07-23T12:52:09.375Z,26.31
2017-07-23T12:53:09.074Z,26.43
2017-07-23T12:54:09.702Z,26.53
2017-07-23T12:55:10.190Z,26.63
2017-07-23T12:56:09.401Z,26.83